Saint Bonifacius, Minnesota
Current Conditions -  °F | °C
As of 8:53 PM on Friday 28 Nov 2014 (Local Time) from KFCM Reporting Station
Few Clouds Few Clouds  
Wind Chill: 12°   Ceiling: Unl
Heat Index: 23°   Visibility: 10mi
Dew Point: 18°   Wind: 10mph
Humidity: 81%   Direction: 100°E
Pressure: 29.74"   Gusts: NA
Location:  44.91°N, 93.75°W
Report Text: KFCM 290253Z 10009KT 10SM FEW016 M05/M08 A2974 RMK AO2 SLP086 60000 T10501078 58020
Loading
Personal Weather Stations






























Interactive Weather Map New forecast layout! Learn more

10-Day Weather Forecast

Advertisements
Track Severe Weather on mobile